Time;durP1;ratioP1;P1;durP2;ratioP2;P2;SDS_P1;SDS_P2;PMS_P1;PMS_P2;Temp;Humidity;BMP_temperature;BMP_pressure;BME280_temperature;BME280_humidity;BME280_pressure;Samples;Min_cycle;Max_cycle;Signal;HPM_P1;HPM_P2
2023/07/03 00:02:17;;;;;;;10.00;6.90;;;17.30;1.00;;;;;;5008404;28;20849;-72
2023/07/03 00:04:45;;;;;;;9.63;6.03;;;17.20;1.00;;;;;;5023737;28;20465;-72
2023/07/03 00:07:14;;;;;;;10.27;5.80;;;17.20;1.00;;;;;;5026005;28;20481;-72
2023/07/03 00:09:41;;;;;;;9.73;6.57;;;17.10;1.00;;;;;;5030681;28;20465;-73
2023/07/03 00:12:10;;;;;;;8.93;6.27;;;17.10;1.00;;;;;;5026408;28;21047;-72
2023/07/03 00:14:38;;;;;;;7.90;5.90;;;17.10;1.00;;;;;;5019451;28;20640;-72
2023/07/03 00:17:07;;;;;;;9.10;6.17;;;17.00;1.00;;;;;;5026470;28;20461;-72
2023/07/03 00:19:34;;;;;;;9.50;6.43;;;17.00;1.00;;;;;;5022039;28;20959;-73
2023/07/03 00:22:01;;;;;;;7.77;5.80;;;17.00;1.00;;;;;;5027688;28;20850;-73
2023/07/03 00:24:30;;;;;;;7.20;5.80;;;17.00;1.00;;;;;;5026921;28;20461;-73
2023/07/03 00:26:57;;;;;;;11.70;6.17;;;17.00;1.00;;;;;;5025270;28;20454;-73
2023/07/03 00:29:24;;;;;;;9.80;6.93;;;16.90;1.00;;;;;;5025790;28;20473;-73
2023/07/03 00:31:54;;;;;;;7.90;5.60;;;16.90;1.00;;;;;;5030359;28;20493;-73
2023/07/03 00:34:21;;;;;;;7.03;6.30;;;16.80;1.00;;;;;;5026951;28;20442;-73
2023/07/03 00:36:48;;;;;;;9.90;7.60;;;16.80;1.00;;;;;;5030477;28;20553;-73
2023/07/03 00:39:15;;;;;;;10.80;6.70;;;16.80;1.00;;;;;;5029923;28;20628;-73
2023/07/03 00:41:43;;;;;;;13.10;6.87;;;16.70;1.00;;;;;;5028847;28;21055;-72
2023/07/03 00:44:11;;;;;;;7.07;6.13;;;16.70;1.00;;;;;;5027560;28;20464;-73
2023/07/03 00:46:39;;;;;;;8.87;5.80;;;16.70;1.00;;;;;;5028660;28;20647;-73
2023/07/03 00:49:09;;;;;;;11.83;7.00;;;16.70;1.00;;;;;;5023707;28;20472;-72
2023/07/03 00:51:36;;;;;;;8.93;6.50;;;16.70;1.00;;;;;;5024273;28;21031;-73
2023/07/03 00:54:03;;;;;;;8.67;6.77;;;16.60;1.00;;;;;;5032499;28;20449;-73
2023/07/03 00:56:31;;;;;;;7.20;6.47;;;16.50;1.00;;;;;;5027983;28;20468;-73
2023/07/03 00:58:58;;;;;;;7.50;6.13;;;16.50;1.00;;;;;;5028115;28;20620;-73
2023/07/03 01:01:34;;;;;;;7.53;6.67;;;16.40;1.00;;;;;;5024710;28;20465;-72
2023/07/03 01:04:11;;;;;;;10.07;6.43;;;16.30;1.00;;;;;;5028569;28;20479;-72
2023/07/03 01:06:42;;;;;;;9.20;6.93;;;16.20;1.00;;;;;;5027278;28;20472;-72
2023/07/03 01:09:13;;;;;;;10.50;7.00;;;16.00;1.00;;;;;;5025364;28;20493;-72
2023/07/03 01:11:41;;;;;;;9.47;5.83;;;15.90;1.00;;;;;;5025042;28;20579;-72
2023/07/03 01:14:10;;;;;;;8.30;6.63;;;15.80;1.00;;;;;;5025758;28;20551;-72
2023/07/03 01:16:38;;;;;;;11.33;7.70;;;15.70;1.00;;;;;;5027437;28;20906;-72
2023/07/03 01:19:09;;;;;;;8.57;6.53;;;15.60;1.00;;;;;;5021765;28;20480;-72
2023/07/03 01:21:45;;;;;;;7.50;6.37;;;15.50;1.00;;;;;;5026967;28;20457;-72
2023/07/03 01:24:14;;;;;;;8.67;6.83;;;15.50;1.00;;;;;;5025911;28;20476;-72
2023/07/03 01:26:45;;;;;;;10.13;7.00;;;15.50;1.00;;;;;;5025822;28;20920;-72
2023/07/03 01:29:14;;;;;;;8.10;7.20;;;15.40;1.00;;;;;;5025547;28;20527;-72
2023/07/03 01:31:43;;;;;;;9.20;7.43;;;15.40;1.00;;;;;;5024418;28;20508;-72
2023/07/03 01:34:10;;;;;;;8.20;7.40;;;15.40;1.00;;;;;;5023216;28;20464;-72
2023/07/03 01:36:39;;;;;;;9.63;7.57;;;15.40;1.00;;;;;;5025219;28;20519;-72
2023/07/03 01:39:06;;;;;;;7.53;6.03;;;15.40;1.00;;;;;;5019155;28;20966;-72
2023/07/03 01:41:34;;;;;;;9.07;7.00;;;15.40;1.00;;;;;;5002380;28;20477;-72
2023/07/03 01:44:03;;;;;;;8.83;6.93;;;15.40;1.00;;;;;;5009998;28;20479;-72
2023/07/03 01:46:29;;;;;;;8.37;7.57;;;15.50;1.00;;;;;;5021248;28;20456;-72
2023/07/03 01:48:57;;;;;;;9.60;8.67;;;15.50;1.00;;;;;;5023443;28;20526;-72
2023/07/03 01:51:33;;;;;;;11.10;7.30;;;15.60;1.00;;;;;;5020759;28;20472;-72
2023/07/03 01:54:07;;;;;;;9.10;6.97;;;15.70;1.00;;;;;;5023635;28;20563;-72
2023/07/03 01:56:39;;;;;;;10.07;8.10;;;15.80;1.00;;;;;;5018730;28;21033;-72
2023/07/03 01:59:11;;;;;;;8.20;7.23;;;15.90;1.00;;;;;;5015199;28;21139;-72
2023/07/03 02:01:45;;;;;;;8.30;7.27;;;16.00;1.00;;;;;;5022897;28;20548;-73
2023/07/03 02:04:20;;;;;;;10.07;7.70;;;16.00;1.00;;;;;;5005543;28;20985;-73
2023/07/03 02:06:48;;;;;;;8.90;7.47;;;16.00;1.00;;;;;;5022834;28;21894;-76
2023/07/03 02:09:16;;;;;;;8.73;7.70;;;16.10;1.00;;;;;;5023558;28;20873;-76
2023/07/03 02:11:45;;;;;;;10.10;7.87;;;16.10;1.00;;;;;;5011643;28;20535;-74
2023/07/03 02:14:14;;;;;;;10.10;7.80;;;16.10;1.00;;;;;;5003364;28;20461;-75
2023/07/03 02:16:43;;;;;;;17.07;8.73;;;16.00;1.00;;;;;;5002643;28;20521;-75
2023/07/03 02:19:13;;;;;;;11.43;8.20;;;16.00;1.00;;;;;;5002392;28;20470;-74
2023/07/03 02:21:40;;;;;;;10.60;6.57;;;16.00;1.00;;;;;;5000420;28;20795;-75
2023/07/03 02:24:08;;;;;;;9.97;6.60;;;16.00;1.00;;;;;;5007519;28;20829;-75
2023/07/03 02:26:35;;;;;;;9.60;7.70;;;16.00;1.00;;;;;;5007122;28;20454;-77
2023/07/03 02:29:02;;;;;;;11.13;7.30;;;16.10;1.00;;;;;;5004005;28;20469;-75
2023/07/03 02:31:31;;;;;;;9.53;7.53;;;16.10;1.00;;;;;;5002858;28;20473;-75
2023/07/03 02:33:57;;;;;;;10.73;7.60;;;16.10;1.00;;;;;;5022617;28;20461;-75
2023/07/03 02:36:29;;;;;;;11.90;6.57;;;16.10;1.00;;;;;;5025369;28;20457;-76
2023/07/03 02:38:57;;;;;;;11.10;7.57;;;16.20;1.00;;;;;;5021021;28;21012;-74
2023/07/03 02:41:24;;;;;;;9.73;6.87;;;16.30;1.00;;;;;;5006770;28;20442;-76
2023/07/03 02:43:50;;;;;;;11.20;7.40;;;16.20;1.00;;;;;;5001168;28;20937;-75
2023/07/03 02:46:17;;;;;;;11.13;7.70;;;16.20;1.00;;;;;;5014378;28;20485;-76
2023/07/03 02:48:46;;;;;;;10.47;6.97;;;16.20;1.00;;;;;;5006726;28;20454;-76
2023/07/03 02:51:13;;;;;;;9.30;6.80;;;16.20;1.00;;;;;;5004015;28;20504;-75
2023/07/03 02:53:40;;;;;;;9.87;7.50;;;16.30;1.00;;;;;;5006997;28;21525;-75
2023/07/03 02:56:07;;;;;;;9.23;7.30;;;16.30;1.00;;;;;;5008931;28;20458;-75
2023/07/03 02:58:34;;;;;;;8.97;7.47;;;16.40;1.00;;;;;;5028804;28;20458;-75
2023/07/03 03:01:02;;;;;;;8.23;7.40;;;16.40;1.00;;;;;;5029258;28;20484;-75
2023/07/03 03:03:30;;;;;;;10.73;7.83;;;16.40;1.00;;;;;;5004885;28;20541;-75
2023/07/03 03:05:59;;;;;;;9.83;6.93;;;16.50;1.00;;;;;;5005143;28;20474;-76
2023/07/03 03:08:25;;;;;;;8.70;7.80;;;16.50;1.00;;;;;;5010627;28;20434;-76
2023/07/03 03:10:54;;;;;;;9.63;7.53;;;16.60;1.00;;;;;;5014998;28;20474;-76
2023/07/03 03:13:21;;;;;;;9.90;7.20;;;16.70;1.00;;;;;;5006467;28;20450;-76
2023/07/03 03:15:48;;;;;;;9.70;7.50;;;16.70;1.00;;;;;;5016028;28;20555;-75
2023/07/03 03:18:15;;;;;;;9.83;7.40;;;16.80;1.00;;;;;;5018043;28;20453;-74
2023/07/03 03:20:44;;;;;;;9.67;7.90;;;16.90;1.00;;;;;;5027110;28;20481;-74
2023/07/03 03:23:12;;;;;;;10.40;6.80;;;16.90;1.00;;;;;;5024812;28;20450;-74
2023/07/03 03:25:39;;;;;;;9.83;7.07;;;16.90;1.00;;;;;;5023733;28;20549;-74
2023/07/03 03:28:08;;;;;;;8.20;7.40;;;16.90;1.00;;;;;;5025559;28;20540;-73
2023/07/03 03:30:35;;;;;;;10.00;9.00;;;16.90;1.00;;;;;;5028330;28;20473;-73
2023/07/03 03:33:02;;;;;;;7.80;7.00;;;16.90;1.00;;;;;;5029612;28;20461;-73
2023/07/03 03:35:29;;;;;;;12.37;8.57;;;16.80;1.00;;;;;;5029052;28;20429;-75
2023/07/03 03:37:56;;;;;;;10.73;7.83;;;16.80;1.00;;;;;;5020094;28;20895;-74
2023/07/03 03:40:24;;;;;;;9.43;7.30;;;16.80;1.00;;;;;;5010505;28;20587;-73
2023/07/03 03:42:51;;;;;;;11.23;7.70;;;16.90;1.00;;;;;;5031099;28;20992;-74
2023/07/03 03:45:18;;;;;;;8.90;7.37;;;16.90;1.00;;;;;;5032945;28;20494;-74
2023/07/03 03:47:48;;;;;;;8.53;7.23;;;17.00;1.00;;;;;;5032138;28;20460;-73
2023/07/03 03:50:15;;;;;;;10.03;7.20;;;17.00;1.00;;;;;;5032366;28;20686;-74
2023/07/03 03:52:42;;;;;;;9.90;7.87;;;17.00;1.00;;;;;;5032527;28;20542;-74
2023/07/03 03:55:10;;;;;;;10.50;7.40;;;17.10;1.00;;;;;;5033131;28;20516;-75
2023/07/03 03:57:38;;;;;;;10.33;7.07;;;17.10;1.00;;;;;;5029912;28;20521;-75
2023/07/03 04:00:10;;;;;;;7.90;7.17;;;17.20;1.00;;;;;;5020203;28;20458;-73
2023/07/03 04:02:37;;;;;;;10.73;8.90;;;17.30;1.00;;;;;;5011001;28;20538;-74
2023/07/03 04:05:05;;;;;;;10.10;7.57;;;17.30;1.00;;;;;;5016241;28;20473;-73
2023/07/03 04:07:32;;;;;;;10.13;7.10;;;17.40;1.00;;;;;;5031404;28;20953;-74
2023/07/03 04:09:59;;;;;;;11.50;8.00;;;17.30;1.00;;;;;;5029934;28;20473;-74
2023/07/03 04:12:29;;;;;;;9.27;7.10;;;17.30;1.00;;;;;;5014696;28;20448;-73
2023/07/03 04:14:57;;;;;;;12.63;7.93;;;17.30;1.00;;;;;;5021257;28;20485;-72
2023/07/03 04:17:24;;;;;;;9.57;7.17;;;17.40;1.00;;;;;;5008421;28;20501;-74
2023/07/03 04:19:51;;;;;;;9.63;7.53;;;17.50;1.00;;;;;;5010110;28;20556;-74
2023/07/03 04:22:18;;;;;;;9.30;7.77;;;17.60;1.00;;;;;;5014582;28;20537;-74
2023/07/03 04:24:44;;;;;;;9.60;7.30;;;17.60;1.00;;;;;;5014387;28;20417;-74
2023/07/03 04:27:11;;;;;;;9.13;8.20;;;17.70;1.00;;;;;;5020234;28;20821;-74
2023/07/03 04:29:38;;;;;;;11.63;7.40;;;17.70;1.00;;;;;;5027681;28;20478;-74
2023/07/03 04:32:07;;;;;;;13.43;8.33;;;17.70;1.00;;;;;;5023555;28;20461;-74
2023/07/03 04:34:34;;;;;;;9.60;8.50;;;17.70;1.00;;;;;;5030207;28;20470;-74
2023/07/03 04:37:03;;;;;;;12.30;8.10;;;17.80;1.00;;;;;;5028162;28;20511;-73
2023/07/03 04:39:30;;;;;;;10.53;8.20;;;17.90;1.00;;;;;;5026552;28;20510;-75
2023/07/03 04:42:00;;;;;;;10.03;8.33;;;17.90;1.00;;;;;;5027599;28;21978;-75
2023/07/03 04:44:27;;;;;;;9.43;8.20;;;18.00;1.00;;;;;;5013078;28;20464;-75
2023/07/03 04:46:55;;;;;;;12.37;8.10;;;18.00;1.00;;;;;;5004462;28;20502;-75
2023/07/03 04:49:26;;;;;;;11.10;7.80;;;18.00;1.00;;;;;;5006310;28;20475;-74
2023/07/03 04:51:53;;;;;;;12.87;8.90;;;18.00;1.00;;;;;;5019074;28;20454;-75
2023/07/03 04:54:20;;;;;;;10.40;7.70;;;18.10;1.00;;;;;;5006431;28;20469;-76
2023/07/03 04:56:48;;;;;;;8.93;7.93;;;18.20;1.00;;;;;;5008651;28;20921;-76
2023/07/03 04:59:15;;;;;;;11.93;9.17;;;18.20;1.00;;;;;;5003990;28;20468;-76
2023/07/03 05:01:43;;;;;;;12.77;8.60;;;18.30;1.00;;;;;;5016927;28;20466;-75
2023/07/03 05:04:10;;;;;;;12.13;8.53;;;18.30;1.00;;;;;;5023984;28;20449;-76
2023/07/03 05:06:39;;;;;;;12.57;8.20;;;18.40;1.00;;;;;;5020237;28;20468;-76
2023/07/03 05:09:08;;;;;;;12.20;8.63;;;18.50;1.00;;;;;;5024839;28;20468;-76
2023/07/03 05:11:35;;;;;;;13.43;8.13;;;18.50;1.00;;;;;;5024289;28;20455;-76
2023/07/03 05:14:02;;;;;;;11.97;8.17;;;18.50;1.00;;;;;;5028735;28;21051;-76
2023/07/03 05:16:29;;;;;;;10.53;7.73;;;18.60;1.00;;;;;;5026060;28;21901;-76
2023/07/03 05:18:56;;;;;;;12.63;8.80;;;18.50;1.00;;;;;;5027743;28;20472;-76
2023/07/03 05:21:23;;;;;;;11.50;8.53;;;18.50;1.00;;;;;;5023630;28;20503;-75
2023/07/03 05:23:51;;;;;;;11.13;8.20;;;18.50;1.00;;;;;;5021724;28;20563;-75
2023/07/03 05:26:18;;;;;;;12.53;8.10;;;18.70;1.00;;;;;;5026627;28;20480;-75
2023/07/03 05:28:45;;;;;;;10.10;8.30;;;18.90;1.00;;;;;;5025234;28;20480;-75
2023/07/03 05:31:12;;;;;;;9.93;8.23;;;19.00;1.00;;;;;;5018342;28;20554;-76
2023/07/03 05:33:39;;;;;;;15.70;9.13;;;19.00;1.00;;;;;;5040736;28;20563;-76
2023/07/03 05:36:07;;;;;;;9.77;8.77;;;19.00;1.00;;;;;;5018006;28;20557;-76
2023/07/03 05:38:34;;;;;;;12.00;8.80;;;19.00;1.00;;;;;;5009497;28;20719;-77
2023/07/03 05:41:02;;;;;;;11.70;9.13;;;19.10;1.00;;;;;;5015578;28;20488;-74
2023/07/03 05:43:29;;;;;;;10.87;8.17;;;19.20;1.00;;;;;;5022542;28;20497;-75
2023/07/03 05:45:57;;;;;;;10.43;7.60;;;19.20;1.00;;;;;;5010485;28;20467;-75
2023/07/03 05:48:24;;;;;;;12.90;8.33;;;19.30;1.00;;;;;;5006977;28;20488;-74
2023/07/03 05:50:51;;;;;;;8.80;7.93;;;19.40;1.00;;;;;;5005652;28;21546;-76
2023/07/03 05:53:18;;;;;;;11.60;7.60;;;19.60;1.00;;;;;;5012416;28;20656;-76
2023/07/03 05:55:55;;;;;;;11.13;8.20;;;19.60;1.00;;;;;;5007803;28;20465;-76
2023/07/03 05:58:24;;;;;;;11.93;7.83;;;19.70;1.00;;;;;;5013422;28;20472;-76
2023/07/03 06:00:51;;;;;;;14.67;9.43;;;19.80;1.00;;;;;;5006925;28;20493;-75
2023/07/03 06:03:19;;;;;;;11.90;7.80;;;19.90;1.00;;;;;;5028183;28;20960;-76
2023/07/03 06:05:46;;;;;;;13.10;8.07;;;19.90;1.00;;;;;;5025788;28;20834;-76
2023/07/03 06:08:13;;;;;;;10.37;8.30;;;20.00;1.00;;;;;;5028214;28;20469;-76
2023/07/03 06:10:42;;;;;;;10.10;9.03;;;20.00;1.00;;;;;;5022439;28;20463;-75
2023/07/03 06:13:09;;;;;;;12.80;9.10;;;20.10;1.00;;;;;;5017288;28;20792;-75
2023/07/03 06:15:38;;;;;;;12.10;8.20;;;20.20;1.00;;;;;;5025433;28;20460;-77
2023/07/03 06:18:05;;;;;;;11.33;7.83;;;20.20;1.00;;;;;;5025109;28;20551;-75
2023/07/03 06:20:33;;;;;;;11.30;7.10;;;20.10;1.00;;;;;;5027648;28;20445;-76
2023/07/03 06:23:00;;;;;;;7.63;6.13;;;20.20;1.00;;;;;;5026877;28;20555;-77
2023/07/03 06:25:27;;;;;;;9.40;7.00;;;20.10;1.00;;;;;;5025777;28;20881;-76
2023/07/03 06:27:54;;;;;;;12.67;6.50;;;20.00;1.00;;;;;;5025645;28;20928;-76
2023/07/03 06:30:21;;;;;;;9.50;6.90;;;20.00;1.00;;;;;;5023720;28;20859;-76
2023/07/03 06:32:50;;;;;;;8.93;8.03;;;20.10;1.00;;;;;;5025760;28;20489;-76
2023/07/03 06:35:17;;;;;;;11.00;7.00;;;20.20;1.00;;;;;;5023741;28;20507;-78
2023/07/03 06:37:44;;;;;;;14.97;7.87;;;20.20;1.00;;;;;;5024114;28;20481;-76
2023/07/03 06:40:15;;;;;;;11.33;6.83;;;20.20;1.00;;;;;;5028209;28;20511;-75
2023/07/03 06:42:43;;;;;;;9.73;7.30;;;20.20;1.00;;;;;;5026266;28;21298;-75
2023/07/03 06:45:11;;;;;;;9.50;7.77;;;20.10;1.00;;;;;;5023664;28;20487;-75
2023/07/03 06:47:38;;;;;;;9.50;6.80;;;20.00;1.00;;;;;;5025115;28;20551;-74
2023/07/03 06:50:08;;;;;;;10.60;6.80;;;20.00;1.00;;;;;;5023926;28;20967;-75
2023/07/03 06:52:36;;;;;;;10.30;6.73;;;20.30;1.00;;;;;;5023656;28;20459;-74
2023/07/03 06:55:03;;;;;;;7.20;5.90;;;20.50;1.00;;;;;;5027415;28;20994;-76
2023/07/03 06:57:30;;;;;;;11.10;7.20;;;20.50;1.00;;;;;;5017272;28;20892;-76
2023/07/03 06:59:58;;;;;;;6.80;5.90;;;20.50;1.00;;;;;;5011297;28;20563;-75
2023/07/03 07:02:24;;;;;;;11.73;6.67;;;20.50;1.00;;;;;;5003289;28;20427;-76
2023/07/03 07:04:55;;;;;;;12.30;6.57;;;20.50;1.00;;;;;;5004530;28;20626;-76
2023/07/03 07:07:24;;;;;;;13.30;7.37;;;20.60;1.00;;;;;;5009358;28;20540;-75
2023/07/03 07:09:51;;;;;;;7.97;5.80;;;20.80;1.00;;;;;;5024860;28;20449;-76
2023/07/03 07:12:18;;;;;;;9.00;6.70;;;21.00;1.00;;;;;;5013439;28;20529;-76
2023/07/03 07:14:44;;;;;;;9.30;6.10;;;21.10;1.00;;;;;;5014507;28;20496;-75
2023/07/03 07:17:12;;;;;;;9.80;6.30;;;21.10;1.00;;;;;;5028594;28;20437;-76
2023/07/03 07:19:38;;;;;;;9.20;6.10;;;21.00;1.00;;;;;;5029303;28;20454;-76
2023/07/03 07:22:05;;;;;;;9.53;6.13;;;21.00;1.00;;;;;;5022181;28;20553;-76
2023/07/03 07:24:34;;;;;;;10.73;6.10;;;21.10;1.00;;;;;;5030096;28;20552;-76
2023/07/03 07:27:02;;;;;;;8.20;6.00;;;21.10;1.00;;;;;;5030283;28;20462;-75
2023/07/03 07:29:29;;;;;;;11.20;7.07;;;21.10;1.00;;;;;;5022829;28;20486;-76
2023/07/03 07:31:57;;;;;;;10.33;6.00;;;21.10;1.00;;;;;;5026552;28;20575;-76
2023/07/03 07:34:25;;;;;;;10.40;6.80;;;21.10;1.00;;;;;;5024744;28;20471;-76
2023/07/03 07:36:52;;;;;;;8.70;6.77;;;21.10;1.00;;;;;;5009080;28;20558;-77
2023/07/03 07:39:20;;;;;;;9.53;6.37;;;21.10;1.00;;;;;;5009576;28;20586;-76
2023/07/03 07:41:51;;;;;;;10.00;7.00;;;21.10;1.00;;;;;;5007817;28;20955;-76
2023/07/03 07:44:18;;;;;;;7.87;5.37;;;21.00;1.00;;;;;;5012037;28;20920;-76
2023/07/03 07:46:45;;;;;;;9.73;5.83;;;21.10;1.00;;;;;;5024215;28;20556;-76
2023/07/03 07:49:12;;;;;;;8.80;6.33;;;21.10;1.00;;;;;;5029655;28;20969;-75
2023/07/03 07:51:39;;;;;;;10.73;5.83;;;21.20;1.00;;;;;;5030688;28;20464;-76
2023/07/03 07:54:06;;;;;;;9.07;6.30;;;21.30;1.00;;;;;;5027905;28;20536;-76
2023/07/03 07:56:34;;;;;;;8.83;5.93;;;21.40;1.00;;;;;;5019422;28;20480;-77
2023/07/03 07:59:02;;;;;;;9.20;6.57;;;21.40;1.00;;;;;;5029428;28;20556;-77
2023/07/03 08:01:29;;;;;;;10.30;6.50;;;21.40;1.00;;;;;;5013951;28;20473;-77
2023/07/03 08:03:56;;;;;;;10.73;6.50;;;21.40;1.00;;;;;;5028884;28;20570;-78
2023/07/03 08:06:24;;;;;;;11.43;6.80;;;21.40;1.00;;;;;;5028381;28;20532;-77
2023/07/03 08:08:51;;;;;;;8.00;5.73;;;21.70;1.00;;;;;;5028427;28;20467;-76
2023/07/03 08:11:18;;;;;;;6.90;5.70;;;22.00;1.00;;;;;;5028258;28;20471;-76
2023/07/03 08:13:45;;;;;;;8.67;7.03;;;22.00;1.00;;;;;;5028496;28;20466;-76
2023/07/03 08:16:15;;;;;;;7.37;5.43;;;21.90;1.00;;;;;;5029977;28;20513;-76
2023/07/03 08:18:42;;;;;;;9.37;6.00;;;21.90;1.00;;;;;;5027787;28;21055;-76
2023/07/03 08:21:11;;;;;;;8.60;6.40;;;22.10;1.00;;;;;;5028817;28;20563;-75
2023/07/03 08:23:38;;;;;;;11.00;6.80;;;22.30;1.00;;;;;;5028601;28;20614;-75
2023/07/03 08:26:05;;;;;;;6.73;5.60;;;22.30;1.00;;;;;;5020448;28;20480;-77
2023/07/03 08:28:32;;;;;;;14.70;6.10;;;22.30;1.00;;;;;;5026377;28;20459;-77
2023/07/03 08:31:00;;;;;;;7.53;5.13;;;22.20;1.00;;;;;;5027015;28;20465;-75
2023/07/03 08:33:28;;;;;;;13.20;6.23;;;22.10;1.00;;;;;;5009989;28;21059;-76
2023/07/03 08:35:55;;;;;;;9.63;5.63;;;22.10;1.00;;;;;;5025530;28;20556;-78
2023/07/03 08:38:23;;;;;;;9.97;6.20;;;22.10;1.00;;;;;;5027584;28;20548;-77
2023/07/03 08:40:57;;;;;;;7.23;5.70;;;22.30;1.00;;;;;;5030526;28;20461;-77
2023/07/03 08:43:24;;;;;;;9.97;6.03;;;22.40;1.00;;;;;;5026965;28;21065;-77
2023/07/03 08:45:52;;;;;;;9.83;5.83;;;22.50;1.00;;;;;;5025710;28;20564;-76
2023/07/03 08:48:22;;;;;;;7.20;5.10;;;22.80;1.00;;;;;;5027468;28;20464;-77
2023/07/03 08:50:53;;;;;;;8.60;6.10;;;22.90;1.00;;;;;;5030224;28;20496;-77
2023/07/03 08:53:23;;;;;;;11.20;6.10;;;22.80;1.00;;;;;;5028322;28;20586;-77
2023/07/03 08:55:58;;;;;;;11.37;6.00;;;22.40;1.00;;;;;;5027756;28;20502;-76
2023/07/03 08:58:27;;;;;;;9.63;5.97;;;22.10;1.00;;;;;;5026722;28;20466;-77
2023/07/03 09:01:04;;;;;;;7.30;5.20;;;21.90;1.00;;;;;;5025510;28;20487;-76
2023/07/03 09:03:39;;;;;;;11.73;6.30;;;21.90;1.00;;;;;;5026222;28;20467;-76
2023/07/03 09:06:16;;;;;;;12.40;6.20;;;21.90;1.00;;;;;;5025772;28;20541;-76
2023/07/03 09:08:56;;;;;;;10.33;5.63;;;21.90;1.00;;;;;;5027673;28;20484;-76
2023/07/03 09:11:27;;;;;;;10.03;5.80;;;21.80;1.00;;;;;;5025647;28;20564;-77
2023/07/03 09:13:58;;;;;;;7.40;5.10;;;21.70;1.00;;;;;;5027959;28;20465;-77
2023/07/03 09:16:25;;;;;;;7.23;4.60;;;21.80;1.00;;;;;;5029074;28;20494;-76
2023/07/03 09:18:56;;;;;;;8.30;4.93;;;21.80;1.00;;;;;;5024457;28;21082;-76
2023/07/03 09:21:27;;;;;;;5.83;4.60;;;21.90;1.00;;;;;;5025666;28;20479;-76
2023/07/03 09:24:00;;;;;;;9.00;5.63;;;22.10;1.00;;;;;;5028044;28;20508;-76
2023/07/03 09:26:33;;;;;;;6.13;5.53;;;22.30;1.00;;;;;;5029465;28;20473;-76
2023/07/03 09:29:00;;;;;;;7.33;4.30;;;22.70;1.00;;;;;;5027666;28;20507;-76
2023/07/03 09:31:29;;;;;;;6.50;4.50;;;22.80;1.00;;;;;;5016478;28;20547;-76
2023/07/03 09:33:56;;;;;;;7.03;4.80;;;23.10;1.00;;;;;;5008953;28;20470;-76
2023/07/03 09:36:30;;;;;;;5.30;4.20;;;23.30;1.00;;;;;;5025702;28;20463;-77
2023/07/03 09:38:57;;;;;;;4.87;3.97;;;23.80;1.00;;;;;;5028630;28;20466;-77
2023/07/03 09:41:27;;;;;;;9.07;4.90;;;24.10;1.00;;;;;;5018370;28;20466;-77
2023/07/03 09:43:55;;;;;;;6.13;4.23;;;24.30;1.00;;;;;;5025964;28;20475;-76
2023/07/03 09:46:23;;;;;;;5.97;4.93;;;24.20;1.00;;;;;;5025995;28;22813;-75
2023/07/03 09:48:50;;;;;;;6.60;4.17;;;23.80;1.00;;;;;;5026788;28;20453;-76
2023/07/03 09:51:50;;;;;;;7.20;4.30;;;23.60;1.00;;;;;;5017548;28;20458;-77
2023/07/03 09:54:22;;;;;;;8.80;4.10;;;24.60;1.00;;;;;;5042220;28;20479;-76
2023/07/03 09:56:49;;;;;;;8.73;4.17;;;25.10;1.00;;;;;;5021752;28;20519;-76
2023/07/03 09:59:19;;;;;;;9.83;4.83;;;25.10;1.00;;;;;;5026606;28;21045;-77
2023/07/03 10:01:47;;;;;;;6.73;3.93;;;25.20;1.00;;;;;;5018942;28;21015;-77
2023/07/03 10:04:16;;;;;;;7.50;4.37;;;24.70;1.00;;;;;;5023239;28;20415;-76
2023/07/03 10:07:01;;;;;;;7.13;3.87;;;24.40;1.00;;;;;;5027530;28;20480;-77
2023/07/03 10:09:32;;;;;;;7.17;3.83;;;24.80;1.00;;;;;;5015412;28;20521;-76
2023/07/03 10:12:04;;;;;;;5.77;3.83;;;25.50;1.00;;;;;;5025914;28;20467;-76
2023/07/03 10:14:36;;;;;;;6.10;4.20;;;26.10;1.00;;;;;;5010220;28;20419;-77
2023/07/03 10:17:12;;;;;;;6.63;4.90;;;26.10;1.00;;;;;;5009676;28;20487;-76
2023/07/03 10:19:40;;;;;;;6.43;4.87;;;25.90;1.00;;;;;;5021927;28;20449;-76
2023/07/03 10:22:10;;;;;;;4.77;4.00;;;26.00;1.00;;;;;;5030428;28;21010;-75
2023/07/03 10:24:38;;;;;;;6.00;4.00;;;26.20;1.00;;;;;;5029004;28;20554;-76
2023/07/03 10:27:06;;;;;;;4.30;3.60;;;26.70;1.00;;;;;;5028562;28;20484;-77
2023/07/03 10:29:37;;;;;;;12.50;5.40;;;26.60;1.00;;;;;;5029770;28;20515;-76
2023/07/03 10:32:09;;;;;;;8.57;4.20;;;26.60;1.00;;;;;;5022190;28;20880;-75
2023/07/03 10:34:42;;;;;;;8.27;4.20;;;26.70;1.00;;;;;;5021976;28;20460;-78
2023/07/03 10:37:14;;;;;;;7.23;4.17;;;26.70;1.00;;;;;;5037657;28;20478;-76
2023/07/03 10:39:44;;;;;;;4.73;4.30;;;26.90;1.00;;;;;;5041429;28;21227;-77
2023/07/03 10:42:20;;;;;;;8.80;4.17;;;26.70;1.00;;;;;;5029505;28;20462;-76
2023/07/03 10:44:51;;;;;;;7.33;4.50;;;26.50;1.00;;;;;;5027616;28;20472;-77
2023/07/03 10:47:22;;;;;;;7.90;4.07;;;26.20;1.00;;;;;;5027580;28;20570;-73
2023/07/03 10:49:51;;;;;;;7.77;4.17;;;26.30;1.00;;;;;;5026548;28;20461;-72
2023/07/03 10:52:29;;;;;;;6.40;3.93;;;26.40;1.00;;;;;;5019791;28;20465;-75
2023/07/03 10:55:07;;;;;;;7.03;4.97;;;27.50;1.00;;;;;;5035692;28;20476;-74
2023/07/03 10:57:45;;;;;;;6.63;3.90;;;29.00;1.00;;;;;;5012219;28;20474;-73
2023/07/03 11:00:18;;;;;;;5.90;4.07;;;29.00;1.00;;;;;;5015562;28;21032;-73
2023/07/03 11:02:57;;;;;;;7.33;3.77;;;28.90;1.00;;;;;;5023990;28;20450;-74
2023/07/03 11:05:29;;;;;;;5.67;4.00;;;28.50;1.00;;;;;;5023298;28;20584;-74
2023/07/03 11:08:05;;;;;;;8.50;3.90;;;28.30;1.00;;;;;;5016520;28;20484;-74
2023/07/03 11:10:38;;;;;;;6.27;3.50;;;28.60;1.00;;;;;;5014218;28;20624;-73
2023/07/03 11:13:16;;;;;;;7.60;3.90;;;28.90;1.00;;;;;;5014681;28;20492;-73
2023/07/03 11:15:51;;;;;;;7.10;3.87;;;29.20;1.00;;;;;;5049489;28;20531;-74
2023/07/03 11:18:34;;;;;;;7.90;4.70;;;28.50;1.00;;;;;;5023522;28;20484;-74
2023/07/03 11:21:10;;;;;;;6.23;4.00;;;27.60;1.00;;;;;;5022861;28;20564;-72
2023/07/03 11:23:48;;;;;;;8.73;4.03;;;26.50;1.00;;;;;;5024901;28;20537;-72
2023/07/03 11:26:21;;;;;;;6.73;4.43;;;25.80;1.00;;;;;;5006790;28;20489;-73
2023/07/03 11:28:54;;;;;;;5.20;3.37;;;25.20;1.00;;;;;;5026104;28;20663;-72
2023/07/03 11:31:25;;;;;;;6.93;4.10;;;25.50;1.00;;;;;;5019352;28;20517;-72
2023/07/03 11:33:53;;;;;;;5.27;3.83;;;26.30;1.00;;;;;;5028677;28;20477;-75
2023/07/03 11:36:41;;;;;;;6.00;3.77;;;26.30;1.00;;;;;;5025561;28;20529;-73
2023/07/03 11:39:24;;;;;;;13.03;5.17;;;26.30;1.00;;;;;;5023827;28;20481;-73
2023/07/03 11:41:56;;;;;;;5.73;3.90;;;26.20;1.00;;;;;;5024156;28;20466;-73
2023/07/03 11:44:34;;;;;;;5.77;3.50;;;25.80;1.00;;;;;;5023367;28;20532;-74
2023/07/03 11:47:05;;;;;;;4.80;3.40;;;25.30;1.00;;;;;;5027293;28;20549;-73
2023/07/03 11:49:39;;;;;;;5.03;3.70;;;24.80;1.00;;;;;;5024757;28;20616;-74
2023/07/03 11:52:11;;;;;;;6.50;4.77;;;24.10;1.00;;;;;;5021971;28;20899;-73
2023/07/03 11:54:44;;;;;;;12.77;4.20;;;23.80;1.00;;;;;;5023447;28;20462;-74
2023/07/03 11:57:30;;;;;;;6.70;3.43;;;23.60;1.00;;;;;;5022761;28;20437;-74
2023/07/03 12:00:17;;;;;;;7.03;3.70;;;23.40;1.00;;;;;;5020749;28;20476;-72
2023/07/03 12:02:54;;;;;;;6.97;4.33;;;23.60;1.00;;;;;;5019559;28;20886;-72
2023/07/03 12:05:51;;;;;;;6.93;3.70;;;23.90;1.00;;;;;;5008370;28;20467;-72
2023/07/03 12:08:42;;;;;;;6.40;3.90;;;24.80;1.00;;;;;;5028211;28;20467;-73
2023/07/03 12:11:12;;;;;;;8.43;3.17;;;27.40;1.00;;;;;;5031455;28;20481;-74
2023/07/03 12:13:58;;;;;;;4.23;3.30;;;29.40;1.00;;;;;;5028400;28;20458;-72
2023/07/03 12:16:32;;;;;;;7.40;3.57;;;30.60;1.00;;;;;;5026425;28;20543;-74
2023/07/03 12:19:05;;;;;;;5.40;3.90;;;31.30;1.00;;;;;;5045996;28;20490;-73
2023/07/03 12:21:40;;;;;;;7.70;4.60;;;29.80;1.00;;;;;;5026243;28;20473;-73
2023/07/03 12:24:27;;;;;;;7.30;4.13;;;28.40;1.00;;;;;;5009177;28;20550;-74
2023/07/03 12:27:00;;;;;;;7.57;3.60;;;27.30;1.00;;;;;;5010039;28;20590;-75
2023/07/03 12:29:28;;;;;;;10.00;4.50;;;26.30;1.00;;;;;;5009660;28;20464;-72
2023/07/03 12:32:05;;;;;;;5.67;4.30;;;25.80;1.00;;;;;;5015750;28;20506;-73
2023/07/03 12:34:33;;;;;;;5.67;3.50;;;25.50;1.00;;;;;;5030605;28;20456;-75
2023/07/03 12:37:02;;;;;;;6.90;3.20;;;25.00;1.00;;;;;;5009595;28;20497;-73
2023/07/03 12:39:34;;;;;;;5.50;3.73;;;25.10;1.00;;;;;;5018114;28;21257;-73
2023/07/03 12:42:10;;;;;;;8.80;3.17;;;24.90;1.00;;;;;;5009817;28;20534;-71
2023/07/03 12:44:37;;;;;;;8.40;4.37;;;24.80;1.00;;;;;;5017094;28;20495;-74
2023/07/03 12:47:12;;;;;;;4.97;2.70;;;24.90;1.00;;;;;;5009664;28;20577;-74
2023/07/03 12:49:55;;;;;;;7.00;3.37;;;25.10;1.00;;;;;;5009625;28;20963;-74
2023/07/03 12:52:23;;;;;;;9.10;3.60;;;25.20;1.00;;;;;;5009316;28;20498;-75
2023/07/03 12:54:51;;;;;;;6.30;4.20;;;25.50;1.00;;;;;;5014834;28;20449;-75
2023/07/03 12:57:22;;;;;;;10.13;3.73;;;26.00;1.00;;;;;;5025938;28;20836;-73
2023/07/03 12:59:53;;;;;;;6.47;3.80;;;26.50;1.00;;;;;;5018484;28;20464;-74
2023/07/03 13:02:23;;;;;;;6.37;3.70;;;27.70;1.00;;;;;;5027352;28;20815;-74
2023/07/03 13:04:57;;;;;;;5.90;3.43;;;28.60;1.00;;;;;;5027341;28;20465;-73
2023/07/03 13:07:25;;;;;;;5.57;3.37;;;29.20;1.00;;;;;;5015978;28;22234;-74